createdAt,value
2023-05-22T00:00:14.140Z,22.26
2023-05-22T00:02:43.643Z,22.25
2023-05-22T00:05:12.332Z,22.24
2023-05-22T00:07:40.523Z,22.23
2023-05-22T00:10:09.006Z,22.21
2023-05-22T00:12:36.966Z,22.21
2023-05-22T00:15:07.346Z,22.21
2023-05-22T00:17:35.480Z,22.21
2023-05-22T00:20:04.500Z,22.21
2023-05-22T00:22:35.638Z,22.20
2023-05-22T00:25:03.997Z,22.18
2023-05-22T00:27:31.972Z,22.19
2023-05-22T00:30:00.198Z,22.15
2023-05-22T00:32:29.726Z,22.18
2023-05-22T00:34:57.821Z,22.17
2023-05-22T00:37:26.377Z,22.16
2023-05-22T00:39:54.422Z,22.17
2023-05-22T00:42:22.548Z,22.19
2023-05-22T00:44:50.589Z,22.20
2023-05-22T00:47:18.676Z,22.21
2023-05-22T00:49:47.971Z,22.24
2023-05-22T00:52:17.729Z,22.24
2023-05-22T00:54:48.608Z,22.26
2023-05-22T00:57:16.581Z,22.27
2023-05-22T00:59:44.674Z,22.28
2023-05-22T01:02:13.538Z,22.29
2023-05-22T01:04:42.965Z,22.27
2023-05-22T01:07:12.315Z,22.25
2023-05-22T01:09:40.250Z,22.23
2023-05-22T01:12:12.912Z,22.20
2023-05-22T01:14:44.867Z,22.20
2023-05-22T01:17:23.596Z,22.19
2023-05-22T01:20:01.577Z,22.15
2023-05-22T01:22:42.549Z,22.14
2023-05-22T01:25:28.689Z,22.12
2023-05-22T01:28:08.667Z,22.11
2023-05-22T01:30:51.416Z,22.09
2023-05-22T01:33:19.736Z,22.07
2023-05-22T01:35:50.080Z,22.06
2023-05-22T01:38:18.017Z,22.05
2023-05-22T01:40:46.249Z,22.06
2023-05-22T01:43:14.439Z,22.03
2023-05-22T01:45:42.465Z,22.02
2023-05-22T01:48:16.774Z,22.01
2023-05-22T01:50:45.437Z,22.00
2023-05-22T01:53:15.293Z,21.99
2023-05-22T01:55:46.923Z,21.98
2023-05-22T01:58:22.392Z,21.97
2023-05-22T02:00:51.640Z,21.96
2023-05-22T02:03:22.791Z,21.97
2023-05-22T02:05:53.117Z,21.95
2023-05-22T02:08:21.485Z,21.95
2023-05-22T02:10:50.189Z,21.94
2023-05-22T02:13:18.132Z,21.92
2023-05-22T02:15:46.776Z,21.92
2023-05-22T02:18:15.108Z,21.92
2023-05-22T02:20:44.425Z,21.91
2023-05-22T02:23:12.451Z,21.90
2023-05-22T02:25:40.827Z,21.90
2023-05-22T02:28:08.836Z,21.90
2023-05-22T02:30:36.990Z,21.89
2023-05-22T02:33:06.671Z,21.89
2023-05-22T02:35:34.706Z,21.89
2023-05-22T02:38:04.074Z,21.88
2023-05-22T02:40:32.020Z,21.89
2023-05-22T02:42:59.984Z,21.89
2023-05-22T02:45:27.981Z,21.90
2023-05-22T02:47:56.248Z,21.89
2023-05-22T02:50:24.265Z,21.89
2023-05-22T02:52:52.257Z,21.88
2023-05-22T02:55:21.790Z,21.88
2023-05-22T02:57:49.867Z,21.88
2023-05-22T03:00:18.888Z,21.87
2023-05-22T03:02:47.409Z,21.87
2023-05-22T03:05:18.022Z,21.86
2023-05-22T03:07:48.684Z,21.86
2023-05-22T03:10:16.965Z,21.85
2023-05-22T03:12:46.281Z,21.86
2023-05-22T03:15:14.389Z,21.86
2023-05-22T03:17:42.395Z,21.85
2023-05-22T03:20:11.212Z,21.84
2023-05-22T03:22:39.182Z,21.82
2023-05-22T03:25:09.496Z,21.82
2023-05-22T03:27:37.498Z,21.82
2023-05-22T03:30:08.334Z,21.82
2023-05-22T03:32:37.768Z,21.83
2023-05-22T03:35:07.070Z,21.81
2023-05-22T03:37:35.066Z,21.82
2023-05-22T03:40:04.273Z,21.80
2023-05-22T03:42:32.321Z,21.81
2023-05-22T03:45:00.285Z,21.79
2023-05-22T03:47:29.799Z,21.80
2023-05-22T03:49:57.756Z,21.79
2023-05-22T03:52:26.173Z,21.79
2023-05-22T03:54:54.499Z,21.79
2023-05-22T03:57:22.475Z,21.79
2023-05-22T03:59:50.473Z,21.79
2023-05-22T04:02:18.551Z,21.80
2023-05-22T04:04:48.189Z,21.79
2023-05-22T04:07:18.568Z,21.78
2023-05-22T04:09:46.644Z,21.78
2023-05-22T04:12:14.683Z,21.78
2023-05-22T04:14:42.589Z,21.78
2023-05-22T04:17:11.712Z,21.79
2023-05-22T04:19:39.652Z,21.79
2023-05-22T04:22:09.405Z,21.81
2023-05-22T04:24:39.799Z,21.79
2023-05-22T04:27:07.976Z,21.79
2023-05-22T04:29:36.388Z,21.79
2023-05-22T04:32:06.324Z,21.78
2023-05-22T04:34:37.438Z,21.78
2023-05-22T04:37:06.233Z,21.80
2023-05-22T04:39:35.599Z,21.80
2023-05-22T04:42:06.023Z,21.82
2023-05-22T04:44:34.502Z,21.80
2023-05-22T04:47:06.030Z,21.75
2023-05-22T04:49:42.314Z,21.80
2023-05-22T04:52:11.709Z,21.81
2023-05-22T04:54:41.488Z,21.80
2023-05-22T04:57:09.536Z,21.83
2023-05-22T04:59:39.266Z,21.84
2023-05-22T05:02:07.351Z,21.86
2023-05-22T05:04:35.253Z,21.79
2023-05-22T05:07:03.635Z,21.85
2023-05-22T05:09:31.683Z,21.85
2023-05-22T05:12:01.140Z,21.86
2023-05-22T05:14:29.043Z,21.86
2023-05-22T05:16:57.175Z,21.85
2023-05-22T05:19:25.302Z,21.85
2023-05-22T05:21:53.495Z,21.86
2023-05-22T05:24:21.600Z,21.85
2023-05-22T05:26:49.639Z,21.87
2023-05-22T05:29:19.081Z,21.88
2023-05-22T05:31:47.052Z,21.86
2023-05-22T05:34:15.023Z,21.88
2023-05-22T05:36:43.256Z,21.90
2023-05-22T05:39:11.181Z,21.91
2023-05-22T05:41:39.156Z,21.93
2023-05-22T05:44:07.724Z,21.94
2023-05-22T05:46:37.136Z,21.95
2023-05-22T05:49:10.144Z,21.97
2023-05-22T05:51:38.186Z,21.97
2023-05-22T05:54:06.497Z,21.98
2023-05-22T05:56:34.612Z,21.99
2023-05-22T05:59:02.686Z,21.98
2023-05-22T06:01:32.944Z,21.99
2023-05-22T06:04:04.297Z,22.00
2023-05-22T06:06:35.693Z,22.02
2023-05-22T06:09:05.618Z,22.04
2023-05-22T06:11:33.620Z,21.97
2023-05-22T06:14:02.998Z,22.05
2023-05-22T06:16:31.262Z,22.04
2023-05-22T06:18:59.501Z,22.03
2023-05-22T06:21:28.921Z,22.04
2023-05-22T06:23:57.387Z,22.05
2023-05-22T06:26:25.976Z,22.04
2023-05-22T06:28:54.390Z,22.07
2023-05-22T06:31:23.306Z,22.11
2023-05-22T06:33:51.917Z,22.12
2023-05-22T06:36:20.169Z,22.12
2023-05-22T06:38:49.721Z,22.14
2023-05-22T06:41:17.720Z,22.14
2023-05-22T06:43:45.675Z,22.14
2023-05-22T06:46:13.659Z,22.15
2023-05-22T06:48:42.071Z,22.16
2023-05-22T06:51:11.726Z,22.15
2023-05-22T06:53:39.788Z,22.15
2023-05-22T06:56:09.422Z,22.15
2023-05-22T06:58:37.458Z,22.16
2023-05-22T07:01:05.933Z,22.19
2023-05-22T07:03:34.015Z,22.20
2023-05-22T07:06:02.434Z,22.22
2023-05-22T07:08:30.836Z,22.24
2023-05-22T07:10:59.011Z,22.25
2023-05-22T07:13:32.046Z,22.25
2023-05-22T07:16:00.190Z,22.26
2023-05-22T07:18:28.202Z,22.28
2023-05-22T07:20:56.292Z,22.29
2023-05-22T07:23:25.616Z,22.29
2023-05-22T07:25:54.453Z,22.32
2023-05-22T07:28:22.405Z,22.36
2023-05-22T07:30:51.984Z,22.38
2023-05-22T07:33:19.985Z,22.43
2023-05-22T07:35:47.911Z,22.47
2023-05-22T07:38:15.852Z,22.48
2023-05-22T07:40:43.817Z,22.50
2023-05-22T07:43:11.790Z,22.53
2023-05-22T07:45:40.255Z,22.57
2023-05-22T07:48:09.841Z,22.61
2023-05-22T07:50:37.996Z,22.65
2023-05-22T07:53:06.483Z,22.67
2023-05-22T07:55:34.488Z,22.69
2023-05-22T07:58:04.209Z,22.70
2023-05-22T08:00:32.398Z,22.72
2023-05-22T08:03:00.776Z,22.74
2023-05-22T08:05:30.333Z,22.72
2023-05-22T08:07:58.629Z,22.73
2023-05-22T08:10:30.001Z,22.74
2023-05-22T08:13:06.318Z,22.76
2023-05-22T08:15:34.445Z,22.78
2023-05-22T08:18:02.564Z,22.79
2023-05-22T08:20:32.327Z,22.80
2023-05-22T08:23:00.384Z,22.82
2023-05-22T08:25:28.349Z,22.84
2023-05-22T08:27:56.336Z,22.87
2023-05-22T08:30:24.344Z,22.89
2023-05-22T08:32:52.423Z,22.91
2023-05-22T08:35:20.395Z,22.91
2023-05-22T08:37:49.822Z,22.92
2023-05-22T08:40:17.804Z,22.92
2023-05-22T08:42:46.184Z,22.92
2023-05-22T08:45:16.240Z,22.93
2023-05-22T08:47:45.025Z,22.92
2023-05-22T08:50:13.258Z,22.90
2023-05-22T08:52:48.104Z,22.91
2023-05-22T08:55:19.488Z,22.91
2023-05-22T08:57:47.581Z,22.92
2023-05-22T09:00:16.988Z,22.94
2023-05-22T09:02:45.305Z,22.95
2023-05-22T09:05:13.538Z,22.95
2023-05-22T09:07:41.488Z,22.98
2023-05-22T09:10:09.866Z,23.00
2023-05-22T09:12:39.220Z,23.03
2023-05-22T09:15:11.158Z,23.03
2023-05-22T09:17:40.748Z,23.03
2023-05-22T09:20:13.328Z,23.04
2023-05-22T09:22:41.862Z,23.05
2023-05-22T09:25:10.350Z,23.08
2023-05-22T09:27:39.838Z,23.12
2023-05-22T09:30:08.869Z,23.14
2023-05-22T09:32:36.911Z,23.15
2023-05-22T09:35:05.340Z,23.16
2023-05-22T09:37:34.846Z,23.18
2023-05-22T09:40:06.044Z,23.17
2023-05-22T09:42:34.622Z,23.17
2023-05-22T09:45:08.379Z,23.16
2023-05-22T09:47:36.479Z,23.14
2023-05-22T09:50:07.207Z,23.14
2023-05-22T09:52:35.944Z,23.07
2023-05-22T09:55:04.869Z,23.12
2023-05-22T09:57:33.924Z,23.10
2023-05-22T10:00:02.114Z,23.09
2023-05-22T10:02:31.866Z,23.17
2023-05-22T10:04:59.829Z,23.23
2023-05-22T10:07:31.438Z,23.24
2023-05-22T10:10:03.374Z,23.29
2023-05-22T10:12:31.898Z,23.31
2023-05-22T10:15:00.179Z,23.30
2023-05-22T10:17:28.145Z,23.30
2023-05-22T10:20:01.127Z,23.30
2023-05-22T10:22:29.068Z,23.31
2023-05-22T10:24:57.052Z,23.33
2023-05-22T10:27:25.121Z,23.34
2023-05-22T10:29:55.876Z,23.35
2023-05-22T10:32:27.171Z,23.35
2023-05-22T10:35:00.750Z,23.38
2023-05-22T10:37:38.284Z,23.41
2023-05-22T10:40:08.221Z,23.43
2023-05-22T10:42:36.197Z,23.45
2023-05-22T10:45:05.069Z,23.45
2023-05-22T10:47:34.471Z,23.45
2023-05-22T10:50:08.732Z,23.42
2023-05-22T10:52:36.777Z,23.40
2023-05-22T10:55:07.553Z,23.39
2023-05-22T10:57:35.721Z,23.38
2023-05-22T11:00:11.592Z,23.38
2023-05-22T11:02:43.576Z,23.38
2023-05-22T11:05:38.206Z,23.39
2023-05-22T11:10:56.033Z,23.42
2023-05-22T11:13:29.108Z,23.41
2023-05-22T11:15:58.278Z,23.43
2023-05-22T11:18:29.487Z,23.45
2023-05-22T11:21:00.269Z,23.49
2023-05-22T11:23:28.270Z,23.50
2023-05-22T11:25:56.264Z,23.52
2023-05-22T11:28:24.457Z,23.53
2023-05-22T11:30:52.503Z,23.53
2023-05-22T11:33:20.592Z,23.54
2023-05-22T11:35:49.254Z,23.55
2023-05-22T11:38:18.629Z,23.59
2023-05-22T11:40:46.585Z,23.61
2023-05-22T11:43:14.613Z,23.59
2023-05-22T11:45:42.581Z,23.59
2023-05-22T11:48:13.351Z,23.58
2023-05-22T11:50:44.407Z,23.56
2023-05-22T11:53:12.594Z,23.55
2023-05-22T11:55:43.698Z,23.53
2023-05-22T11:58:11.776Z,23.54
2023-05-22T12:00:39.952Z,23.53
2023-05-22T12:03:08.197Z,23.53
2023-05-22T12:05:39.356Z,23.55
2023-05-22T12:08:10.401Z,23.64
2023-05-22T12:10:38.471Z,23.65
2023-05-22T12:13:08.216Z,23.66
2023-05-22T12:15:36.151Z,23.63
2023-05-22T12:18:04.353Z,23.63
2023-05-22T12:20:32.320Z,23.64
2023-05-22T12:23:00.332Z,23.63
2023-05-22T12:25:34.548Z,23.70
2023-05-22T12:28:08.433Z,23.73
2023-05-22T12:30:42.774Z,23.72
2023-05-22T12:33:15.310Z,23.79
2023-05-22T12:35:43.421Z,23.82
2023-05-22T12:38:13.540Z,23.85
2023-05-22T12:40:41.728Z,23.87
2023-05-22T12:43:11.133Z,23.89
2023-05-22T12:45:41.335Z,23.92
2023-05-22T12:48:09.886Z,23.93
2023-05-22T12:50:38.083Z,23.92
2023-05-22T12:53:06.211Z,23.90
2023-05-22T12:55:34.175Z,23.88
2023-05-22T12:58:02.213Z,23.88
2023-05-22T13:00:32.017Z,23.87
2023-05-22T13:03:00.109Z,23.87
2023-05-22T13:05:28.195Z,23.87
2023-05-22T13:07:56.176Z,23.89
2023-05-22T13:10:24.124Z,23.87
2023-05-22T13:12:52.284Z,23.86
2023-05-22T13:15:20.269Z,23.84
2023-05-22T13:17:49.606Z,23.84
2023-05-22T13:20:17.642Z,23.82
2023-05-22T13:22:45.795Z,23.82
2023-05-22T13:25:14.117Z,23.81
2023-05-22T13:27:42.216Z,23.79
2023-05-22T13:30:10.944Z,23.79
2023-05-22T13:32:38.932Z,23.76
2023-05-22T13:35:09.114Z,23.76
2023-05-22T13:37:37.171Z,23.76
2023-05-22T13:40:05.802Z,23.76
2023-05-22T13:42:33.830Z,23.76
2023-05-22T13:45:01.804Z,23.76
2023-05-22T13:47:32.314Z,23.75
2023-05-22T13:50:03.185Z,23.77
2023-05-22T13:52:32.692Z,23.81
2023-05-22T13:55:01.399Z,23.84
2023-05-22T13:57:29.352Z,23.89
2023-05-22T13:59:57.438Z,23.94
2023-05-22T14:02:25.562Z,23.94
2023-05-22T14:04:53.584Z,23.96
2023-05-22T14:07:21.519Z,23.94
2023-05-22T14:09:51.099Z,23.94
2023-05-22T14:12:19.197Z,23.93
2023-05-22T14:14:47.109Z,23.94
2023-05-22T14:17:15.142Z,23.94
2023-05-22T14:19:43.098Z,23.94
2023-05-22T14:22:11.096Z,23.94
2023-05-22T14:24:39.057Z,23.92
2023-05-22T14:27:08.598Z,23.90
2023-05-22T14:29:36.548Z,23.88
2023-05-22T14:32:05.565Z,23.86
2023-05-22T14:34:33.763Z,23.84
2023-05-22T14:37:01.752Z,23.83
2023-05-22T14:39:29.716Z,23.82
2023-05-22T14:41:57.669Z,23.80
2023-05-22T14:44:27.039Z,23.79
2023-05-22T14:46:55.161Z,23.79
2023-05-22T14:49:23.122Z,23.76
2023-05-22T14:51:51.080Z,23.76
2023-05-22T14:54:19.340Z,23.73
2023-05-22T14:56:47.433Z,23.72
2023-05-22T14:59:15.486Z,23.70
2023-05-22T15:01:49.960Z,23.69
2023-05-22T15:04:18.164Z,23.69
2023-05-22T15:06:46.230Z,23.70
2023-05-22T15:09:14.140Z,23.70
2023-05-22T15:11:46.830Z,23.68
2023-05-22T15:14:14.752Z,23.65
2023-05-22T15:16:44.281Z,23.64
2023-05-22T15:19:12.442Z,23.63
2023-05-22T15:21:42.169Z,23.64
2023-05-22T15:24:10.190Z,23.66
2023-05-22T15:26:38.160Z,23.65
2023-05-22T15:29:06.149Z,23.65
2023-05-22T15:31:34.182Z,23.63
2023-05-22T15:34:03.545Z,23.61
2023-05-22T15:36:33.122Z,23.60
2023-05-22T15:39:01.097Z,23.59
2023-05-22T15:41:29.033Z,23.57
2023-05-22T15:43:57.161Z,23.57
2023-05-22T15:46:25.235Z,23.56
2023-05-22T15:48:53.261Z,23.55
2023-05-22T15:51:25.652Z,23.54
2023-05-22T15:53:53.618Z,23.53
2023-05-22T15:56:21.606Z,23.52
2023-05-22T15:58:49.562Z,23.52
2023-05-22T16:01:18.367Z,23.51
2023-05-22T16:03:46.531Z,23.56
2023-05-22T16:06:15.309Z,23.56
2023-05-22T16:08:44.671Z,23.55
2023-05-22T16:11:12.899Z,23.53
2023-05-22T16:13:40.995Z,23.53
2023-05-22T16:16:09.173Z,23.54
2023-05-22T16:18:37.201Z,23.56
2023-05-22T16:21:05.507Z,23.60
2023-05-22T16:23:33.546Z,23.63
2023-05-22T16:26:02.783Z,23.65
2023-05-22T16:28:30.739Z,23.67
2023-05-22T16:30:58.707Z,23.68
2023-05-22T16:33:27.981Z,23.71
2023-05-22T16:35:56.629Z,23.72
2023-05-22T16:38:46.706Z,23.76
2023-05-22T16:41:16.956Z,23.78
2023-05-22T16:43:44.965Z,23.80
2023-05-22T16:46:12.950Z,23.81
2023-05-22T16:48:40.936Z,23.79
2023-05-22T16:51:11.333Z,23.78
2023-05-22T16:53:41.013Z,23.78
2023-05-22T16:56:09.147Z,23.75
2023-05-22T16:58:38.499Z,23.74
2023-05-22T17:01:07.347Z,23.74
2023-05-22T17:03:35.429Z,23.70
2023-05-22T17:06:03.694Z,23.70
2023-05-22T17:08:32.173Z,23.67
2023-05-22T17:11:00.157Z,23.64
2023-05-22T17:13:28.144Z,23.61
2023-05-22T17:15:57.513Z,23.58
2023-05-22T17:18:25.533Z,23.56
2023-05-22T17:20:55.825Z,23.52
2023-05-22T17:23:23.809Z,23.49
2023-05-22T17:25:51.918Z,23.46
2023-05-22T17:28:19.956Z,23.44
2023-05-22T17:30:48.287Z,23.40
2023-05-22T17:33:18.127Z,23.38
2023-05-22T17:35:46.277Z,23.35
2023-05-22T17:38:14.195Z,23.32
2023-05-22T17:40:45.422Z,23.29
2023-05-22T17:43:14.137Z,23.25
2023-05-22T17:45:44.525Z,23.21
2023-05-22T17:48:14.568Z,23.19
2023-05-22T17:50:44.260Z,23.16
2023-05-22T17:53:17.890Z,23.14
2023-05-22T17:55:46.799Z,23.12
2023-05-22T17:58:15.011Z,23.19
2023-05-22T18:00:43.037Z,23.21
2023-05-22T18:03:12.212Z,23.18
2023-05-22T18:05:40.241Z,23.16
2023-05-22T18:08:09.592Z,23.16
2023-05-22T18:10:38.185Z,23.14
2023-05-22T18:13:06.471Z,23.11
2023-05-22T18:15:34.380Z,23.10
2023-05-22T18:18:02.357Z,23.07
2023-05-22T18:20:31.614Z,23.06
2023-05-22T18:22:59.601Z,23.07
2023-05-22T18:25:29.082Z,23.06
2023-05-22T18:27:57.093Z,23.04
2023-05-22T18:30:25.144Z,23.04
2023-05-22T18:32:53.179Z,23.03
2023-05-22T18:35:21.204Z,23.02
2023-05-22T18:37:49.316Z,23.02
2023-05-22T18:40:17.575Z,22.98
2023-05-22T18:42:46.921Z,22.98
2023-05-22T18:45:14.890Z,22.96
2023-05-22T18:47:42.949Z,22.93
2023-05-22T18:50:11.891Z,22.91
2023-05-22T18:52:40.045Z,22.89
2023-05-22T18:55:08.362Z,22.87
2023-05-22T18:57:36.380Z,22.85
2023-05-22T19:00:07.158Z,22.83
2023-05-22T19:02:35.279Z,22.81
2023-05-22T19:05:04.535Z,22.80
2023-05-22T19:07:32.672Z,22.79
2023-05-22T19:10:00.638Z,22.78
2023-05-22T19:12:31.710Z,22.77
2023-05-22T19:14:59.976Z,22.76
2023-05-22T19:17:29.409Z,22.75
2023-05-22T19:19:57.393Z,22.72
2023-05-22T19:22:25.620Z,22.72
2023-05-22T19:24:53.550Z,22.72
2023-05-22T19:27:21.566Z,22.70
2023-05-22T19:29:49.522Z,22.70
2023-05-22T19:32:17.493Z,22.64
2023-05-22T19:34:47.561Z,22.68
2023-05-22T19:37:15.553Z,22.67
2023-05-22T19:39:43.530Z,22.66
2023-05-22T19:42:12.300Z,22.65
2023-05-22T19:44:40.261Z,22.65
2023-05-22T19:47:08.863Z,22.64
2023-05-22T19:49:37.363Z,22.63
2023-05-22T19:52:07.174Z,22.63
2023-05-22T19:54:35.652Z,22.62
2023-05-22T19:57:04.032Z,22.62
2023-05-22T19:59:32.900Z,22.61
2023-05-22T20:02:01.600Z,22.62
2023-05-22T20:04:30.319Z,22.60
2023-05-22T20:06:58.792Z,22.59
2023-05-22T20:09:28.220Z,22.60
2023-05-22T20:11:56.183Z,22.59
2023-05-22T20:14:24.176Z,22.60
2023-05-22T20:16:52.193Z,22.59
2023-05-22T20:19:20.604Z,22.59
2023-05-22T20:21:50.001Z,22.60
2023-05-22T20:24:18.986Z,22.59
2023-05-22T20:26:48.321Z,22.58
2023-05-22T20:29:16.315Z,22.58
2023-05-22T20:31:44.355Z,22.58
2023-05-22T20:34:12.364Z,22.58
2023-05-22T20:36:40.861Z,22.58
2023-05-22T20:39:09.406Z,22.57
2023-05-22T20:41:38.476Z,22.56
2023-05-22T20:44:08.338Z,22.55
2023-05-22T20:46:36.424Z,22.53
2023-05-22T20:49:04.916Z,22.53
2023-05-22T20:51:33.612Z,22.52
2023-05-22T20:54:01.808Z,22.52
2023-05-22T20:56:30.100Z,22.51
2023-05-22T20:58:58.085Z,22.50
2023-05-22T21:01:27.487Z,22.51
2023-05-22T21:03:56.478Z,22.50
2023-05-22T21:06:24.602Z,22.48
2023-05-22T21:08:54.250Z,22.46
2023-05-22T21:11:22.367Z,22.47
2023-05-22T21:13:50.346Z,22.44
2023-05-22T21:16:18.455Z,22.46
2023-05-22T21:18:47.847Z,22.50
2023-05-22T21:21:16.340Z,22.47
2023-05-22T21:23:48.050Z,22.50
2023-05-22T21:26:16.732Z,22.50
2023-05-22T21:28:44.830Z,22.53
2023-05-22T21:31:12.804Z,22.52
2023-05-22T21:33:43.644Z,22.48
2023-05-22T21:36:12.920Z,22.46
2023-05-22T21:38:41.154Z,22.44
2023-05-22T21:41:09.028Z,22.44
2023-05-22T21:43:36.876Z,22.44
2023-05-22T21:46:05.228Z,22.43
2023-05-22T21:48:33.320Z,22.44
2023-05-22T21:51:01.429Z,22.46
2023-05-22T21:53:30.904Z,22.44
2023-05-22T21:55:58.882Z,22.43
2023-05-22T21:58:26.939Z,22.42
2023-05-22T22:00:54.907Z,22.40
2023-05-22T22:03:23.009Z,22.38
2023-05-22T22:05:51.162Z,22.38
2023-05-22T22:08:19.139Z,22.37
2023-05-22T22:10:48.600Z,22.35
2023-05-22T22:13:16.684Z,22.34
2023-05-22T22:15:44.722Z,22.32
2023-05-22T22:18:14.934Z,22.32
2023-05-22T22:20:45.317Z,22.30
2023-05-22T22:23:13.653Z,22.30
2023-05-22T22:25:41.671Z,22.30
2023-05-22T22:28:11.438Z,22.28
2023-05-22T22:30:39.743Z,22.29
2023-05-22T22:33:08.161Z,22.29
2023-05-22T22:35:36.218Z,22.30
2023-05-22T22:38:04.214Z,22.29
2023-05-22T22:40:32.263Z,22.30
2023-05-22T22:43:00.205Z,22.29
2023-05-22T22:45:29.547Z,22.27
2023-05-22T22:47:57.528Z,22.28
2023-05-22T22:50:25.570Z,22.27
2023-05-22T22:52:53.643Z,22.25
2023-05-22T22:55:21.923Z,22.26
2023-05-22T22:57:51.585Z,22.25
2023-05-22T23:00:20.223Z,22.24
2023-05-22T23:02:50.012Z,22.24
2023-05-22T23:05:20.531Z,22.23
2023-05-22T23:07:48.761Z,22.23
2023-05-22T23:10:16.825Z,22.22
2023-05-22T23:12:44.768Z,22.21
2023-05-22T23:15:14.128Z,22.22
2023-05-22T23:17:42.260Z,22.22
2023-05-22T23:20:12.592Z,22.21
2023-05-22T23:22:40.515Z,22.22
2023-05-22T23:25:09.087Z,22.22
2023-05-22T23:27:37.471Z,22.22
2023-05-22T23:30:06.342Z,22.22
2023-05-22T23:32:34.379Z,22.22
2023-05-22T23:35:02.378Z,22.22
2023-05-22T23:37:31.796Z,22.21
2023-05-22T23:39:59.809Z,22.21
2023-05-22T23:42:27.781Z,22.22
2023-05-22T23:44:55.761Z,22.24
2023-05-22T23:47:23.782Z,22.25
2023-05-22T23:49:51.775Z,22.24
2023-05-22T23:52:19.818Z,22.24
2023-05-22T23:54:49.176Z,22.23
2023-05-22T23:57:17.229Z,22.22
2023-05-22T23:59:45.192Z,22.21
